This is the latest recevied weather packets stored in our database for station/object M0TJX-1. If no packets are shown the sender has not sent any weather packets the latest 10 day(s).
| Time | Temp. | Humidity | Pressure | Rain* | Wind** | Luminosity | Snow |
|---|---|---|---|---|---|---|---|
| 1788041419 | 16.67° C | 85% | 1006.2 hPa | 0 mm | - | - | - |
| 1788040519 | 17.22° C | 86% | 1005.9 hPa | 0 mm | - | - | - |
| 1788039619 | 17.22° C | 86% | 1005.7 hPa | 0 mm | - | - | - |
| 1788038719 | 17.22° C | 87% | 1005.3 hPa | 0 mm | - | - | - |
| 1788037819 | 17.22° C | 88% | 1004.7 hPa | 0 mm | - | - | - |
| 1788036919 | 17.78° C | 92% | 1004.1 hPa | 0 mm | - | - | - |
| 1788036019 | 17.78° C | 93% | 1003.9 hPa | 0 mm | - | - | - |
| 1788035119 | 18.33° C | 93% | 1003.8 hPa | 0 mm | - | - | - |
| 1788034219 | 18.33° C | 93% | 1003.5 hPa | 0 mm | - | - | - |
| 1788033319 | 18.33° C | 92% | 1003.5 hPa | 0 mm | - | - | - |
| 1788032419 | 18.33° C | 91% | 1003.2 hPa | 0 mm | - | - | - |
| 1788031519 | 18.33° C | 91% | 1003 hPa | 0 mm | - | - | - |
| 1788030619 | 18.33° C | 90% | 1002.7 hPa | 0 mm | - | - | - |
| 1788029719 | 18.33° C | 90% | 1002.5 hPa | 0 mm | - | - | - |
| 1788028819 | 18.33° C | 89% | 1002.3 hPa | 0 mm | - | - | - |
| 1788027919 | 18.89° C | 89% | 1002.3 hPa | 0 mm | - | - | - |
| 1788027019 | 19.44° C | 86% | 1002.1 hPa | 0 mm | - | - | - |
| 1788026119 | 20° C | 84% | 1001.9 hPa | 0 mm | - | - | - |
| 1788025219 | 21.67° C | 77% | 1001.7 hPa | 0 mm | - | - | - |
| 1788024319 | 22.22° C | 74% | 1001.4 hPa | 0 mm | - | - | - |
| 1788023419 | 22.22° C | 76% | 1001.2 hPa | 0 mm | - | - | - |
| 1788022519 | 22.78° C | 75% | 1001 hPa | 0 mm | - | - | - |
| 1788021619 | 22.22° C | 77% | 1001 hPa | 0 mm | - | - | - |
| 1788020719 | 21.67° C | 78% | 1000.9 hPa | 0 mm | - | - | - |
| 1788019819 | 21.11° C | 82% | 1000.7 hPa | 0 mm | - | - | - |
* Rain latest hour (hover to see other rain measurements)
** Current wind speed in m/s (hover to see current wind gust speed)